Lake Charles Regional Airport
KLCH : now visible

Airfield :











YOU CAN JOIN US ON...

 
LOGIN :

Register | Disclaimer

   EN    FR    IT 

 









Legend :    VFR   Marginal VFR   IFR   Intensive IFR   Very Intensive IFR
Visi :
Ceiling :
>= 8 km
>= 3000ft
5 to 8 km
1000 to 3000 ft
1500m to 5 km
500 to 1000 ft
800 to 1500m
200 to 500 ft
< 800m
< 200 ft
Symbols :   Thunderstorms  Fog  Heavy snow  Heavy precipitations  Wind > 20 kt






- Airport Elevation : 15 ft
- IATA code : LCH


KLCH - Lake Charles Regional

CURRENT METAR :
  • 040453Z AUTO 14003KT 9SM CLR 26/24 A3006 RMK AO2 SLP185 T02560239

EXPIRED METARs :
  • 040353Z AUTO 16005KT 9SM CLR 25/24 A3005 RMK AO2 SLP183 T02500239
  • 040253Z AUTO 17004KT 10SM CLR 26/24 A3004 RMK AO2 SLP180 T02610239 53013

TAF KLCH
Valid from the 04 at 00:00 until the 05 at 00:00 UTC


032322Z 0400/0424 20010KT P6SM FEW050 SCT250
FM040200 VRB05KT P6SM SCT250
FM041800 20010KT P6SM FEW040 SCT200
KZHU FIR / North America



MET'MAP, your aeronautical weather chart ! - Copyright ORBIFLY December 2007 - Disclaimer

ORBIFLY MET'MAP TEAM :

Programming & Development : Alexandra Zaïnal
Original concept : Baudouin d'Aumeries
Technical & hardware support : Manuel Goepfert
Assistance : Marc-Olivier Méhu




SOURCES & CREDITS :

   NOAA       Earth
Advisory